sensor_id;sensor_type;location;lat;lon;timestamp;pressure;altitude;pressure_sealevel;temperature;humidity
43701;BME280;58809;47.984;7.964;2023-09-19T00:00:09;97065.59;;;14.45;100.00
43701;BME280;58809;47.984;7.964;2023-09-19T00:03:11;97069.28;;;14.44;100.00
43701;BME280;58809;47.984;7.964;2023-09-19T00:06:13;97071.56;;;14.47;100.00
43701;BME280;58809;47.984;7.964;2023-09-19T00:09:15;97084.63;;;14.49;100.00
43701;BME280;58809;47.984;7.964;2023-09-19T00:12:17;97083.63;;;14.50;100.00
43701;BME280;58809;47.984;7.964;2023-09-19T00:15:19;97087.94;;;14.51;100.00
43701;BME280;58809;47.984;7.964;2023-09-19T00:18:21;97078.50;;;14.55;100.00
43701;BME280;58809;47.984;7.964;2023-09-19T00:21:24;97079.09;;;14.57;100.00
43701;BME280;58809;47.984;7.964;2023-09-19T00:24:25;97084.63;;;14.55;100.00
43701;BME280;58809;47.984;7.964;2023-09-19T00:27:29;97077.47;;;14.49;100.00
43701;BME280;58809;47.984;7.964;2023-09-19T00:30:30;97076.88;;;14.47;100.00
43701;BME280;58809;47.984;7.964;2023-09-19T00:33:32;97081.56;;;14.45;100.00
43701;BME280;58809;47.984;7.964;2023-09-19T00:36:34;97077.88;;;14.46;100.00
43701;BME280;58809;47.984;7.964;2023-09-19T00:39:35;97079.75;;;14.46;100.00
43701;BME280;58809;47.984;7.964;2023-09-19T00:42:39;97080.16;;;14.42;100.00
43701;BME280;58809;47.984;7.964;2023-09-19T00:45:44;97089.56;;;14.45;100.00
43701;BME280;58809;47.984;7.964;2023-09-19T00:48:47;97081.16;;;14.48;100.00
43701;BME280;58809;47.984;7.964;2023-09-19T00:51:48;97080.75;;;14.51;100.00
43701;BME280;58809;47.984;7.964;2023-09-19T00:54:50;97082.38;;;14.52;100.00
43701;BME280;58809;47.984;7.964;2023-09-19T00:57:55;97084.22;;;14.52;100.00
43701;BME280;58809;47.984;7.964;2023-09-19T01:00:57;97078.91;;;14.52;100.00
43701;BME280;58809;47.984;7.964;2023-09-19T01:03:58;97082.16;;;14.54;100.00
43701;BME280;58809;47.984;7.964;2023-09-19T01:07:00;97088.09;;;14.56;100.00
43701;BME280;58809;47.984;7.964;2023-09-19T01:10:03;97082.38;;;14.52;100.00
43701;BME280;58809;47.984;7.964;2023-09-19T01:13:26;97094.06;;;14.51;100.00
43701;BME280;58809;47.984;7.964;2023-09-19T01:16:37;97093.84;;;14.53;100.00
43701;BME280;58809;47.984;7.964;2023-09-19T01:20:08;97095.91;;;14.51;100.00
43701;BME280;58809;47.984;7.964;2023-09-19T01:23:20;97097.53;;;14.45;100.00
43701;BME280;58809;47.984;7.964;2023-09-19T01:27:06;97098.97;;;14.48;100.00
43701;BME280;58809;47.984;7.964;2023-09-19T01:30:22;97095.69;;;14.52;100.00
43701;BME280;58809;47.984;7.964;2023-09-19T01:33:25;97091.41;;;14.58;100.00
43701;BME280;58809;47.984;7.964;2023-09-19T01:36:35;97103.69;;;14.66;100.00
43701;BME280;58809;47.984;7.964;2023-09-19T01:39:38;97101.13;;;14.91;100.00
43701;BME280;58809;47.984;7.964;2023-09-19T01:42:58;97100.31;;;14.90;100.00
43701;BME280;58809;47.984;7.964;2023-09-19T01:46:09;97100.31;;;14.90;100.00
43701;BME280;58809;47.984;7.964;2023-09-19T01:49:22;97102.56;;;14.93;100.00
43701;BME280;58809;47.984;7.964;2023-09-19T01:52:30;97100.91;;;14.99;100.00
43701;BME280;58809;47.984;7.964;2023-09-19T01:55:37;97096.78;;;14.96;100.00
43701;BME280;58809;47.984;7.964;2023-09-19T01:58:47;97102.31;;;15.01;100.00
43701;BME280;58809;47.984;7.964;2023-09-19T02:01:51;97096.53;;;15.11;100.00
43701;BME280;58809;47.984;7.964;2023-09-19T02:04:54;97098.53;;;15.23;100.00
43701;BME280;58809;47.984;7.964;2023-09-19T02:07:59;97104.50;;;15.18;100.00
43701;BME280;58809;47.984;7.964;2023-09-19T02:11:00;97105.47;;;15.24;100.00
43701;BME280;58809;47.984;7.964;2023-09-19T02:14:02;97103.88;;;15.16;100.00
43701;BME280;58809;47.984;7.964;2023-09-19T02:17:05;97110.09;;;15.03;100.00
43701;BME280;58809;47.984;7.964;2023-09-19T02:20:08;97113.81;;;15.02;100.00
43701;BME280;58809;47.984;7.964;2023-09-19T02:23:12;97117.28;;;14.96;100.00
43701;BME280;58809;47.984;7.964;2023-09-19T02:26:14;97112.84;;;14.83;100.00
43701;BME280;58809;47.984;7.964;2023-09-19T02:29:15;97113.53;;;14.58;100.00
43701;BME280;58809;47.984;7.964;2023-09-19T02:32:17;97118.47;;;14.41;100.00
43701;BME280;58809;47.984;7.964;2023-09-19T02:35:21;97127.47;;;14.34;100.00
43701;BME280;58809;47.984;7.964;2023-09-19T02:38:23;97126.03;;;14.31;100.00
43701;BME280;58809;47.984;7.964;2023-09-19T02:41:27;97119.69;;;14.25;100.00
43701;BME280;58809;47.984;7.964;2023-09-19T02:44:30;97123.56;;;14.23;100.00
43701;BME280;58809;47.984;7.964;2023-09-19T02:47:32;97129.13;;;14.21;100.00
43701;BME280;58809;47.984;7.964;2023-09-19T02:50:35;97126.25;;;14.16;100.00
43701;BME280;58809;47.984;7.964;2023-09-19T02:53:36;97124.41;;;14.17;100.00
43701;BME280;58809;47.984;7.964;2023-09-19T02:56:38;97132.78;;;14.14;100.00
43701;BME280;58809;47.984;7.964;2023-09-19T02:59:40;97142.00;;;14.04;100.00
43701;BME280;58809;47.984;7.964;2023-09-19T03:02:42;97131.78;;;14.01;100.00
43701;BME280;58809;47.984;7.964;2023-09-19T03:05:47;97129.75;;;14.03;100.00
43701;BME280;58809;47.984;7.964;2023-09-19T03:08:55;97131.38;;;14.04;100.00
43701;BME280;58809;47.984;7.964;2023-09-19T03:11:58;97126.25;;;14.03;100.00
43701;BME280;58809;47.984;7.964;2023-09-19T03:15:02;97135.47;;;14.00;100.00
43701;BME280;58809;47.984;7.964;2023-09-19T03:18:06;97139.97;;;14.00;100.00
43701;BME280;58809;47.984;7.964;2023-09-19T03:21:08;97144.69;;;13.98;100.00
43701;BME280;58809;47.984;7.964;2023-09-19T03:24:10;97138.53;;;13.97;100.00
43701;BME280;58809;47.984;7.964;2023-09-19T03:27:13;97139.56;;;13.96;100.00
43701;BME280;58809;47.984;7.964;2023-09-19T03:30:18;97128.50;;;13.93;100.00
43701;BME280;58809;47.984;7.964;2023-09-19T03:33:19;97138.94;;;13.94;100.00
43701;BME280;58809;47.984;7.964;2023-09-19T03:36:21;97136.91;;;13.96;100.00
43701;BME280;58809;47.984;7.964;2023-09-19T03:39:23;97136.50;;;13.99;100.00
43701;BME280;58809;47.984;7.964;2023-09-19T03:42:25;97134.84;;;13.98;100.00
43701;BME280;58809;47.984;7.964;2023-09-19T03:45:28;97133.19;;;13.97;100.00
43701;BME280;58809;47.984;7.964;2023-09-19T03:48:29;97130.78;;;13.96;100.00
43701;BME280;58809;47.984;7.964;2023-09-19T03:51:32;97130.78;;;13.96;100.00
43701;BME280;58809;47.984;7.964;2023-09-19T03:54:36;97132.19;;;13.98;100.00
43701;BME280;58809;47.984;7.964;2023-09-19T03:57:37;97126.88;;;13.98;100.00
43701;BME280;58809;47.984;7.964;2023-09-19T04:00:39;97133.19;;;13.97;100.00
43701;BME280;58809;47.984;7.964;2023-09-19T04:03:41;97137.09;;;13.95;100.00
43701;BME280;58809;47.984;7.964;2023-09-19T04:06:49;97136.28;;;13.94;100.00
43701;BME280;58809;47.984;7.964;2023-09-19T04:09:51;97144.28;;;13.94;100.00
43701;BME280;58809;47.984;7.964;2023-09-19T04:12:55;97141.81;;;13.93;100.00
43701;BME280;58809;47.984;7.964;2023-09-19T04:15:57;97138.53;;;13.84;100.00
43701;BME280;58809;47.984;7.964;2023-09-19T04:18:59;97142.84;;;13.85;100.00
43701;BME280;58809;47.984;7.964;2023-09-19T04:22:00;97147.94;;;13.86;100.00
43701;BME280;58809;47.984;7.964;2023-09-19T04:25:02;97158.16;;;13.90;100.00
43701;BME280;58809;47.984;7.964;2023-09-19T04:28:04;97146.31;;;13.92;100.00
43701;BME280;58809;47.984;7.964;2023-09-19T04:31:07;97147.94;;;13.93;100.00
43701;BME280;58809;47.984;7.964;2023-09-19T04:34:09;97147.75;;;13.95;100.00
43701;BME280;58809;47.984;7.964;2023-09-19T04:37:11;97155.09;;;13.93;100.00
43701;BME280;58809;47.984;7.964;2023-09-19T04:40:17;97147.53;;;13.90;100.00
43701;BME280;58809;47.984;7.964;2023-09-19T04:43:21;97158.16;;;13.90;100.00
43701;BME280;58809;47.984;7.964;2023-09-19T04:46:24;97169.63;;;13.90;100.00
43701;BME280;58809;47.984;7.964;2023-09-19T04:49:26;97166.97;;;13.90;100.00
43701;BME280;58809;47.984;7.964;2023-09-19T04:52:30;97172.50;;;13.89;100.00
43701;BME280;58809;47.984;7.964;2023-09-19T04:55:32;97180.69;;;13.87;100.00
43701;BME280;58809;47.984;7.964;2023-09-19T04:58:34;97188.84;;;13.85;100.00
43701;BME280;58809;47.984;7.964;2023-09-19T05:01:36;97185.97;;;13.80;100.00
43701;BME280;58809;47.984;7.964;2023-09-19T05:04:37;97189.69;;;13.79;100.00
43701;BME280;58809;47.984;7.964;2023-09-19T05:07:40;97187.22;;;13.78;100.00
43701;BME280;58809;47.984;7.964;2023-09-19T05:10:42;97179.03;;;13.79;100.00
43701;BME280;58809;47.984;7.964;2023-09-19T05:13:44;97190.88;;;13.77;100.00
43701;BME280;58809;47.984;7.964;2023-09-19T05:16:46;97183.31;;;13.74;100.00
43701;BME280;58809;47.984;7.964;2023-09-19T05:19:47;97191.72;;;13.84;100.00
43701;BME280;58809;47.984;7.964;2023-09-19T05:22:49;97199.09;;;13.89;100.00
43701;BME280;58809;47.984;7.964;2023-09-19T05:25:51;97193.34;;;13.92;100.00
43701;BME280;58809;47.984;7.964;2023-09-19T05:28:53;97199.94;;;13.96;100.00
43701;BME280;58809;47.984;7.964;2023-09-19T05:31:55;97203.00;;;13.99;100.00
43701;BME280;58809;47.984;7.964;2023-09-19T05:34:56;97202.38;;;13.97;100.00
43701;BME280;58809;47.984;7.964;2023-09-19T05:37:59;97218.53;;;14.02;100.00
43701;BME280;58809;47.984;7.964;2023-09-19T05:41:01;97220.00;;;14.05;100.00
43701;BME280;58809;47.984;7.964;2023-09-19T05:44:03;97220.63;;;14.07;100.00
43701;BME280;58809;47.984;7.964;2023-09-19T05:47:06;97230.03;;;14.10;100.00
43701;BME280;58809;47.984;7.964;2023-09-19T05:50:10;97240.50;;;14.18;100.00
43701;BME280;58809;47.984;7.964;2023-09-19T05:53:12;97252.94;;;14.17;100.00
43701;BME280;58809;47.984;7.964;2023-09-19T05:56:16;97246.00;;;14.16;100.00
43701;BME280;58809;47.984;7.964;2023-09-19T05:59:20;97246.19;;;14.15;100.00
43701;BME280;58809;47.984;7.964;2023-09-19T06:02:21;97243.56;;;14.28;100.00
43701;BME280;58809;47.984;7.964;2023-09-19T06:05:27;97243.97;;;14.52;100.00
43701;BME280;58809;47.984;7.964;2023-09-19T06:08:29;97241.97;;;14.67;100.00
43701;BME280;58809;47.984;7.964;2023-09-19T06:11:32;97247.25;;;14.87;100.00
43701;BME280;58809;47.984;7.964;2023-09-19T06:14:36;97255.03;;;14.89;100.00
43701;BME280;58809;47.984;7.964;2023-09-19T06:17:38;97261.38;;;14.94;100.00
43701;BME280;58809;47.984;7.964;2023-09-19T06:20:39;97268.13;;;15.04;100.00
43701;BME280;58809;47.984;7.964;2023-09-19T06:23:45;97263.59;;;15.11;100.00
43701;BME280;58809;47.984;7.964;2023-09-19T06:26:47;97265.84;;;15.20;100.00
43701;BME280;58809;47.984;7.964;2023-09-19T06:29:49;97270.34;;;15.20;100.00
43701;BME280;58809;47.984;7.964;2023-09-19T06:32:57;97266.66;;;15.14;100.00
43701;BME280;58809;47.984;7.964;2023-09-19T06:35:59;97270.81;;;14.97;100.00
43701;BME280;58809;47.984;7.964;2023-09-19T06:39:01;97274.28;;;14.91;100.00
43701;BME280;58809;47.984;7.964;2023-09-19T06:42:05;97270.00;;;14.90;100.00
43701;BME280;58809;47.984;7.964;2023-09-19T06:45:08;97275.75;;;14.87;100.00
43701;BME280;58809;47.984;7.964;2023-09-19T06:48:10;97280.44;;;14.98;100.00
43701;BME280;58809;47.984;7.964;2023-09-19T06:51:14;97280.84;;;15.01;100.00
43701;BME280;58809;47.984;7.964;2023-09-19T06:54:17;97279.81;;;15.02;100.00
43701;BME280;58809;47.984;7.964;2023-09-19T06:57:19;97283.91;;;15.12;100.00
43701;BME280;58809;47.984;7.964;2023-09-19T07:00:21;97288.59;;;15.23;100.00
43701;BME280;58809;47.984;7.964;2023-09-19T07:03:23;97291.66;;;15.33;100.00
43701;BME280;58809;47.984;7.964;2023-09-19T07:06:28;97298.38;;;15.49;100.00
43701;BME280;58809;47.984;7.964;2023-09-19T07:09:29;97293.56;;;15.85;100.00
43701;BME280;58809;47.984;7.964;2023-09-19T07:12:31;97292.13;;;16.21;100.00
43701;BME280;58809;47.984;7.964;2023-09-19T07:15:34;97290.78;;;16.43;100.00
43701;BME280;58809;47.984;7.964;2023-09-19T07:18:40;97294.16;;;16.57;100.00
43701;BME280;58809;47.984;7.964;2023-09-19T07:21:45;97298.81;;;16.93;100.00
43701;BME280;58809;47.984;7.964;2023-09-19T07:24:48;97300.13;;;17.09;100.00
43701;BME280;58809;47.984;7.964;2023-09-19T07:27:50;97291.56;;;17.01;100.00
43701;BME280;58809;47.984;7.964;2023-09-19T07:30:52;97293.88;;;17.16;100.00
43701;BME280;58809;47.984;7.964;2023-09-19T07:33:54;97299.03;;;17.36;100.00
43701;BME280;58809;47.984;7.964;2023-09-19T07:36:55;97297.16;;;17.55;100.00
43701;BME280;58809;47.984;7.964;2023-09-19T07:39:58;97300.16;;;17.46;100.00
43701;BME280;58809;47.984;7.964;2023-09-19T07:42:59;97296.28;;;17.61;100.00
43701;BME280;58809;47.984;7.964;2023-09-19T07:46:04;97305.28;;;17.85;100.00
43701;BME280;58809;47.984;7.964;2023-09-19T07:49:08;97306.53;;;17.82;100.00
43701;BME280;58809;47.984;7.964;2023-09-19T07:52:12;97305.84;;;18.05;100.00
43701;BME280;58809;47.984;7.964;2023-09-19T07:55:14;97314.72;;;18.06;100.00
43701;BME280;58809;47.984;7.964;2023-09-19T07:58:21;97324.19;;;18.20;100.00
43701;BME280;58809;47.984;7.964;2023-09-19T08:01:24;97324.38;;;18.07;100.00
43701;BME280;58809;47.984;7.964;2023-09-19T08:04:26;97320.66;;;18.08;100.00
43701;BME280;58809;47.984;7.964;2023-09-19T08:07:29;97326.97;;;18.14;100.00
43701;BME280;58809;47.984;7.964;2023-09-19T08:10:31;97328.19;;;18.30;100.00
43701;BME280;58809;47.984;7.964;2023-09-19T08:13:40;97331.88;;;18.47;100.00
43701;BME280;58809;47.984;7.964;2023-09-19T08:16:45;97334.22;;;18.55;100.00
43701;BME280;58809;47.984;7.964;2023-09-19T08:19:46;97334.34;;;18.60;100.00
43701;BME280;58809;47.984;7.964;2023-09-19T08:22:49;97343.19;;;18.61;100.00
43701;BME280;58809;47.984;7.964;2023-09-19T08:25:57;97338.53;;;18.56;100.00
43701;BME280;58809;47.984;7.964;2023-09-19T08:28:59;97345.97;;;18.24;100.00
43701;BME280;58809;47.984;7.964;2023-09-19T08:32:07;97351.75;;;18.09;100.00
43701;BME280;58809;47.984;7.964;2023-09-19T08:35:12;97344.63;;;18.33;100.00
43701;BME280;58809;47.984;7.964;2023-09-19T08:38:15;97345.56;;;18.69;100.00
43701;BME280;58809;47.984;7.964;2023-09-19T08:41:17;97345.56;;;18.69;100.00
43701;BME280;58809;47.984;7.964;2023-09-19T08:44:18;97357.56;;;19.20;100.00
43701;BME280;58809;47.984;7.964;2023-09-19T08:47:31;97358.16;;;19.34;100.00
43701;BME280;58809;47.984;7.964;2023-09-19T08:50:48;97360.81;;;19.46;100.00
43701;BME280;58809;47.984;7.964;2023-09-19T08:57:07;97372.91;;;20.08;94.29
43701;BME280;58809;47.984;7.964;2023-09-19T09:00:16;97368.78;;;20.46;91.17
43701;BME280;58809;47.984;7.964;2023-09-19T09:03:22;97364.59;;;20.09;88.50
43701;BME280;58809;47.984;7.964;2023-09-19T09:06:25;97365.47;;;19.86;89.90
43701;BME280;58809;47.984;7.964;2023-09-19T09:09:28;97362.66;;;20.33;86.58
43701;BME280;58809;47.984;7.964;2023-09-19T09:12:30;97366.88;;;21.04;82.65
43701;BME280;58809;47.984;7.964;2023-09-19T09:15:35;97360.41;;;20.71;80.82
43701;BME280;58809;47.984;7.964;2023-09-19T09:18:37;97373.34;;;20.16;80.63
43701;BME280;58809;47.984;7.964;2023-09-19T09:21:39;97360.81;;;20.22;82.97
43701;BME280;58809;47.984;7.964;2023-09-19T09:24:53;97360.81;;;20.22;82.97
43701;BME280;58809;47.984;7.964;2023-09-19T09:28:00;97363.13;;;21.22;78.42
43701;BME280;58809;47.984;7.964;2023-09-19T09:31:05;97363.69;;;20.90;78.40
43701;BME280;58809;47.984;7.964;2023-09-19T09:34:10;97364.00;;;20.19;78.38
43701;BME280;58809;47.984;7.964;2023-09-19T09:37:18;97367.19;;;20.04;82.25
43701;BME280;58809;47.984;7.964;2023-09-19T09:40:24;97360.84;;;20.80;79.75
43701;BME280;58809;47.984;7.964;2023-09-19T09:43:46;97360.84;;;20.80;79.75
43701;BME280;58809;47.984;7.964;2023-09-19T09:46:48;97363.59;;;21.35;77.90
43701;BME280;58809;47.984;7.964;2023-09-19T09:49:50;97369.91;;;20.90;79.48
43701;BME280;58809;47.984;7.964;2023-09-19T09:52:56;97360.91;;;20.56;79.88
43701;BME280;58809;47.984;7.964;2023-09-19T09:56:08;97364.31;;;20.80;80.93
43701;BME280;58809;47.984;7.964;2023-09-19T09:59:11;97364.31;;;20.80;80.93
43701;BME280;58809;47.984;7.964;2023-09-19T10:02:21;97360.44;;;21.05;80.44
43701;BME280;58809;47.984;7.964;2023-09-19T10:05:27;73309.19;;;21.93;80.11
43701;BME280;58809;47.984;7.964;2023-09-19T10:08:29;97359.91;;;21.98;79.51
43701;BME280;58809;47.984;7.964;2023-09-19T10:11:33;97366.63;;;21.22;80.15
43701;BME280;58809;47.984;7.964;2023-09-19T10:14:37;97360.50;;;21.10;79.66
43701;BME280;58809;47.984;7.964;2023-09-19T10:17:39;97359.44;;;20.77;79.34
43701;BME280;58809;47.984;7.964;2023-09-19T10:20:45;97361.63;;;20.80;81.08
43701;BME280;58809;47.984;7.964;2023-09-19T10:23:50;97346.44;;;20.28;83.80
43701;BME280;58809;47.984;7.964;2023-09-19T10:26:54;97352.34;;;20.13;80.78
43701;BME280;58809;47.984;7.964;2023-09-19T10:29:57;97345.50;;;19.94;81.54
43701;BME280;58809;47.984;7.964;2023-09-19T10:33:03;97343.72;;;20.11;81.69
43701;BME280;58809;47.984;7.964;2023-09-19T10:36:05;97345.63;;;20.28;80.89
43701;BME280;58809;47.984;7.964;2023-09-19T10:39:07;97347.81;;;20.60;78.77
43701;BME280;58809;47.984;7.964;2023-09-19T10:42:14;97356.41;;;20.45;79.02
43701;BME280;58809;47.984;7.964;2023-09-19T10:45:18;97335.19;;;20.03;79.81
43701;BME280;58809;47.984;7.964;2023-09-19T10:48:21;97341.28;;;19.98;79.08
43701;BME280;58809;47.984;7.964;2023-09-19T10:51:38;97338.00;;;20.08;74.68
43701;BME280;58809;47.984;7.964;2023-09-19T10:54:46;97342.66;;;20.41;75.08
43701;BME280;58809;47.984;7.964;2023-09-19T10:57:50;97342.00;;;20.63;75.20
43701;BME280;58809;47.984;7.964;2023-09-19T11:00:53;97348.66;;;20.77;70.01
43701;BME280;58809;47.984;7.964;2023-09-19T11:04:21;97335.31;;;20.82;71.01
43701;BME280;58809;47.984;7.964;2023-09-19T11:07:25;97339.03;;;21.88;70.65
43701;BME280;58809;47.984;7.964;2023-09-19T11:17:35;60547.97;;;-144.80;100.00
43701;BME280;58809;47.984;7.964;2023-09-19T11:20:43;97331.38;;;23.48;65.93
43701;BME280;58809;47.984;7.964;2023-09-19T11:27:29;60547.97;;;-144.80;100.00
43701;BME280;58809;47.984;7.964;2023-09-19T11:30:36;97327.56;;;24.81;62.38
43701;BME280;58809;47.984;7.964;2023-09-19T11:33:38;60547.97;;;-144.80;100.00
43701;BME280;58809;47.984;7.964;2023-09-19T11:36:42;60547.97;;;-144.80;100.00
43701;BME280;58809;47.984;7.964;2023-09-19T11:40:08;60547.97;;;-144.80;100.00
43701;BME280;58809;47.984;7.964;2023-09-19T11:43:29;97327.56;;;24.81;62.38
43701;BME280;58809;47.984;7.964;2023-09-19T11:46:33;97309.41;;;25.43;59.94
43701;BME280;58809;47.984;7.964;2023-09-19T11:49:40;97313.31;;;27.74;55.08
43701;BME280;58809;47.984;7.964;2023-09-19T11:52:42;97303.94;;;31.56;48.73
43701;BME280;58809;47.984;7.964;2023-09-19T11:55:46;97302.78;;;32.72;46.03
43701;BME280;58809;47.984;7.964;2023-09-19T11:58:52;97296.59;;;32.14;46.28
43701;BME280;58809;47.984;7.964;2023-09-19T12:02:00;97293.75;;;32.63;45.96
43701;BME280;58809;47.984;7.964;2023-09-19T12:05:02;97294.28;;;31.50;47.12
43701;BME280;58809;47.984;7.964;2023-09-19T12:08:05;97294.41;;;33.50;42.16
43701;BME280;58809;47.984;7.964;2023-09-19T12:11:13;97294.41;;;33.50;42.16
43701;BME280;58809;47.984;7.964;2023-09-19T12:14:23;97283.00;;;35.25;37.77
43701;BME280;58809;47.984;7.964;2023-09-19T12:17:37;97277.63;;;39.21;33.26
43701;BME280;58809;47.984;7.964;2023-09-19T12:20:44;97279.78;;;40.01;31.33
43701;BME280;58809;47.984;7.964;2023-09-19T12:24:17;97267.06;;;38.65;29.56
43701;BME280;58809;47.984;7.964;2023-09-19T12:27:20;97254.88;;;32.87;37.72
43701;BME280;58809;47.984;7.964;2023-09-19T12:30:28;97249.41;;;29.04;42.82
43701;BME280;58809;47.984;7.964;2023-09-19T12:33:30;97249.41;;;29.04;42.82
43701;BME280;58809;47.984;7.964;2023-09-19T12:36:33;60547.97;;;-144.80;100.00
43701;BME280;58809;47.984;7.964;2023-09-19T12:39:36;97241.06;;;28.49;43.93
43701;BME280;58809;47.984;7.964;2023-09-19T12:42:37;97233.59;;;25.12;47.51
43701;BME280;58809;47.984;7.964;2023-09-19T12:45:42;97231.56;;;30.09;42.27
43701;BME280;58809;47.984;7.964;2023-09-19T12:48:44;97232.00;;;34.82;35.41
43701;BME280;58809;47.984;7.964;2023-09-19T12:51:54;97233.00;;;30.65;39.91
43701;BME280;58809;47.984;7.964;2023-09-19T12:54:56;60547.97;;;-144.80;100.00
43701;BME280;58809;47.984;7.964;2023-09-19T13:01:14;97214.47;;;36.63;31.60
43701;BME280;58809;47.984;7.964;2023-09-19T13:04:18;60547.97;;;-144.80;100.00
43701;BME280;58809;47.984;7.964;2023-09-19T13:07:40;97226.56;;;39.42;29.41
43701;BME280;58809;47.984;7.964;2023-09-19T13:11:14;97226.56;;;39.42;29.41
43701;BME280;58809;47.984;7.964;2023-09-19T13:14:25;97213.22;;;39.97;28.08
43701;BME280;58809;47.984;7.964;2023-09-19T13:17:43;97201.41;;;40.68;27.76
43701;BME280;58809;47.984;7.964;2023-09-19T13:21:05;97207.66;;;37.33;28.97
43701;BME280;58809;47.984;7.964;2023-09-19T13:24:25;97191.31;;;29.64;37.28
43701;BME280;58809;47.984;7.964;2023-09-19T13:27:31;97185.66;;;29.05;40.11
43701;BME280;58809;47.984;7.964;2023-09-19T13:30:40;97183.34;;;27.57;43.61
43701;BME280;58809;47.984;7.964;2023-09-19T13:33:48;97193.16;;;34.84;35.81
43701;BME280;58809;47.984;7.964;2023-09-19T13:36:51;97197.25;;;36.38;32.64
43701;BME280;58809;47.984;7.964;2023-09-19T13:39:53;97188.28;;;38.55;30.78
43701;BME280;58809;47.984;7.964;2023-09-19T13:42:55;97189.69;;;39.57;28.02
43701;BME280;58809;47.984;7.964;2023-09-19T13:45:56;97182.44;;;39.03;29.04
43701;BME280;58809;47.984;7.964;2023-09-19T13:48:59;97182.44;;;39.03;29.04
43701;BME280;58809;47.984;7.964;2023-09-19T13:52:01;97183.41;;;39.37;28.21
43701;BME280;58809;47.984;7.964;2023-09-19T13:55:05;97178.44;;;37.48;29.01
43701;BME280;58809;47.984;7.964;2023-09-19T13:58:08;97168.72;;;35.16;32.26
43701;BME280;58809;47.984;7.964;2023-09-19T14:01:12;97177.09;;;39.14;27.95
43701;BME280;58809;47.984;7.964;2023-09-19T14:04:14;97166.97;;;40.69;26.78
43701;BME280;58809;47.984;7.964;2023-09-19T14:07:16;97168.38;;;40.90;26.81
43701;BME280;58809;47.984;7.964;2023-09-19T14:10:19;97165.16;;;40.47;26.38
43701;BME280;58809;47.984;7.964;2023-09-19T14:13:22;97156.06;;;34.78;31.48
43701;BME280;58809;47.984;7.964;2023-09-19T14:16:23;97149.31;;;35.74;30.37
43701;BME280;58809;47.984;7.964;2023-09-19T14:19:27;97143.56;;;34.35;31.19
43701;BME280;58809;47.984;7.964;2023-09-19T14:22:31;97148.94;;;31.25;35.67
43701;BME280;58809;47.984;7.964;2023-09-19T14:25:36;97148.44;;;32.97;33.72
43701;BME280;58809;47.984;7.964;2023-09-19T14:28:39;97148.50;;;35.85;31.46
43701;BME280;58809;47.984;7.964;2023-09-19T14:31:42;97136.38;;;35.00;31.60
43701;BME280;58809;47.984;7.964;2023-09-19T14:34:44;97138.94;;;35.30;32.12
43701;BME280;58809;47.984;7.964;2023-09-19T14:37:45;60547.97;;;-144.80;100.00
43701;BME280;58809;47.984;7.964;2023-09-19T14:40:47;97143.47;;;37.36;29.45
43701;BME280;58809;47.984;7.964;2023-09-19T14:43:52;97138.28;;;33.36;33.93
43701;BME280;58809;47.984;7.964;2023-09-19T14:46:53;97132.00;;;34.75;31.64
43701;BME280;58809;47.984;7.964;2023-09-19T14:49:56;97139.25;;;36.18;31.52
43701;BME280;58809;47.984;7.964;2023-09-19T14:52:57;97135.59;;;36.58;29.47
43701;BME280;58809;47.984;7.964;2023-09-19T14:56:04;97135.06;;;36.53;29.02
43701;BME280;58809;47.984;7.964;2023-09-19T14:59:06;97125.69;;;37.17;28.54
43701;BME280;58809;47.984;7.964;2023-09-19T15:02:09;97136.63;;;38.59;28.11
43701;BME280;58809;47.984;7.964;2023-09-19T15:05:10;97142.38;;;38.31;27.87
43701;BME280;58809;47.984;7.964;2023-09-19T15:08:13;97127.34;;;37.38;28.65
43701;BME280;58809;47.984;7.964;2023-09-19T15:11:15;97123.13;;;36.93;28.78
43701;BME280;58809;47.984;7.964;2023-09-19T15:14:20;97119.16;;;37.42;29.04
43701;BME280;58809;47.984;7.964;2023-09-19T15:17:22;97118.53;;;37.84;28.04
43701;BME280;58809;47.984;7.964;2023-09-19T15:20:26;97123.59;;;38.60;27.59
43701;BME280;58809;47.984;7.964;2023-09-19T15:23:28;97125.88;;;39.00;27.70
43701;BME280;58809;47.984;7.964;2023-09-19T15:26:33;97130.47;;;39.16;26.95
43701;BME280;58809;47.984;7.964;2023-09-19T15:29:34;97123.78;;;38.28;28.05
43701;BME280;58809;47.984;7.964;2023-09-19T15:32:36;97129.00;;;38.33;27.20
43701;BME280;58809;47.984;7.964;2023-09-19T15:35:38;97130.16;;;37.58;28.10
43701;BME280;58809;47.984;7.964;2023-09-19T15:39:03;97128.44;;;37.02;28.28
43701;BME280;58809;47.984;7.964;2023-09-19T15:42:07;97133.28;;;36.60;29.42
43701;BME280;58809;47.984;7.964;2023-09-19T15:45:09;97119.50;;;36.60;29.50
43701;BME280;58809;47.984;7.964;2023-09-19T15:48:11;97122.53;;;35.46;29.49
43701;BME280;58809;47.984;7.964;2023-09-19T15:51:13;97108.91;;;31.29;33.41
43701;BME280;58809;47.984;7.964;2023-09-19T15:54:16;97114.13;;;27.49;38.38
43701;BME280;58809;47.984;7.964;2023-09-19T15:57:18;97127.38;;;25.41;42.44
43701;BME280;58809;47.984;7.964;2023-09-19T16:00:20;97121.16;;;24.24;45.68
43701;BME280;58809;47.984;7.964;2023-09-19T16:03:22;97109.44;;;23.72;46.77
43701;BME280;58809;47.984;7.964;2023-09-19T16:06:30;97118.56;;;23.40;48.26
43701;BME280;58809;47.984;7.964;2023-09-19T16:09:33;97107.63;;;23.04;48.96
43701;BME280;58809;47.984;7.964;2023-09-19T16:12:35;97113.72;;;22.79;49.63
43701;BME280;58809;47.984;7.964;2023-09-19T16:15:41;97108.47;;;22.62;51.01
43701;BME280;58809;47.984;7.964;2023-09-19T16:18:47;97102.34;;;22.29;52.24
43701;BME280;58809;47.984;7.964;2023-09-19T16:21:49;97111.28;;;22.02;52.96
43701;BME280;58809;47.984;7.964;2023-09-19T16:24:50;97108.84;;;21.73;53.70